createdAt,value
2022-08-07T00:00:15.443Z,56.36
2022-08-07T00:01:44.306Z,56.44
2022-08-07T00:02:44.265Z,56.10
2022-08-07T00:03:47.639Z,56.41
2022-08-07T00:04:49.508Z,55.15
2022-08-07T00:05:53.197Z,54.88
2022-08-07T00:06:55.806Z,56.09
2022-08-07T00:08:04.782Z,56.67
2022-08-07T00:09:17.143Z,56.32
2022-08-07T00:10:26.325Z,56.32
2022-08-07T00:11:30.076Z,56.36
2022-08-07T00:12:35.123Z,56.41
2022-08-07T00:13:57.147Z,56.75
2022-08-07T00:15:01.117Z,57.54
2022-08-07T00:16:04.780Z,58.37
2022-08-07T00:17:09.255Z,59.04
2022-08-07T00:18:19.823Z,59.30
2022-08-07T00:19:34.111Z,60.13
2022-08-07T00:20:49.735Z,60.82
2022-08-07T00:21:56.655Z,61.22
2022-08-07T00:23:08.045Z,61.17
2022-08-07T00:24:10.476Z,61.71
2022-08-07T00:25:16.641Z,61.42
2022-08-07T00:26:48.679Z,61.56
2022-08-07T00:27:53.534Z,62.03
2022-08-07T00:28:58.328Z,61.80
2022-08-07T00:30:00.042Z,61.10
2022-08-07T00:31:06.296Z,60.28
2022-08-07T00:32:15.194Z,60.38
2022-08-07T00:33:17.542Z,60.49
2022-08-07T00:34:19.314Z,60.45
2022-08-07T00:35:23.727Z,61.00
2022-08-07T00:36:25.837Z,60.44
2022-08-07T00:37:30.800Z,60.96
2022-08-07T00:38:50.500Z,60.93
2022-08-07T00:39:56.232Z,61.07
2022-08-07T00:40:58.423Z,61.03
2022-08-07T00:42:01.923Z,60.57
2022-08-07T00:43:09.820Z,60.74
2022-08-07T00:44:15.995Z,61.46
2022-08-07T00:45:21.314Z,61.40
2022-08-07T00:46:24.547Z,61.31
2022-08-07T00:48:09.948Z,61.11
2022-08-07T00:48:49.793Z,60.45
2022-08-07T00:50:20.158Z,59.88
2022-08-07T00:51:15.651Z,60.50
2022-08-07T00:52:20.154Z,60.64
2022-08-07T00:53:22.220Z,60.69
2022-08-07T00:54:23.989Z,61.49
2022-08-07T00:56:02.665Z,60.79
2022-08-07T00:56:50.199Z,60.23
2022-08-07T00:57:55.191Z,60.58
2022-08-07T00:58:58.581Z,59.99
2022-08-07T01:00:00.446Z,59.77
2022-08-07T01:01:02.291Z,60.53
2022-08-07T01:02:09.044Z,60.00
2022-08-07T01:03:56.942Z,60.49
2022-08-07T01:04:50.823Z,60.43
2022-08-07T01:05:55.855Z,60.08
2022-08-07T01:06:57.866Z,59.74
2022-08-07T01:07:59.846Z,58.89
2022-08-07T01:09:02.821Z,59.64
2022-08-07T01:10:11.099Z,60.33
2022-08-07T01:12:04.621Z,60.36
2022-08-07T01:12:38.751Z,60.24
2022-08-07T01:13:41.542Z,60.69
2022-08-07T01:15:01.514Z,60.46
2022-08-07T01:16:07.784Z,59.98
2022-08-07T01:17:11.039Z,59.75
2022-08-07T01:18:17.433Z,59.29
2022-08-07T01:19:20.931Z,59.45
2022-08-07T01:20:33.478Z,60.01
2022-08-07T01:21:36.936Z,60.76
2022-08-07T01:22:46.703Z,61.21
2022-08-07T01:23:57.632Z,60.71
2022-08-07T01:25:01.083Z,60.41
2022-08-07T01:26:12.017Z,59.58
2022-08-07T01:27:19.852Z,60.68
2022-08-07T01:28:22.269Z,60.49
2022-08-07T01:29:27.915Z,61.01
2022-08-07T01:30:33.825Z,60.87
2022-08-07T01:31:42.718Z,61.00
2022-08-07T01:32:50.013Z,60.47
2022-08-07T01:33:55.007Z,60.15
2022-08-07T01:34:58.413Z,59.84
2022-08-07T01:36:06.242Z,59.80
2022-08-07T01:37:09.657Z,59.79
2022-08-07T01:38:12.319Z,59.54
2022-08-07T01:39:14.159Z,59.42
2022-08-07T01:40:20.942Z,59.38
2022-08-07T01:41:26.246Z,59.55
2022-08-07T01:42:37.993Z,59.42
2022-08-07T01:43:42.180Z,59.40
2022-08-07T01:44:44.489Z,59.45
2022-08-07T01:45:50.711Z,59.38
2022-08-07T01:46:57.405Z,59.62
2022-08-07T01:48:27.350Z,59.42
2022-08-07T01:49:26.328Z,59.17
2022-08-07T01:50:30.046Z,59.20
2022-08-07T01:52:01.635Z,59.06
2022-08-07T01:52:58.449Z,58.87
2022-08-07T01:54:08.906Z,58.94
2022-08-07T01:55:22.374Z,58.87
2022-08-07T01:56:29.870Z,58.94
2022-08-07T01:58:05.728Z,58.86
2022-08-07T01:59:09.542Z,58.93
2022-08-07T02:00:17.776Z,58.89
2022-08-07T02:01:59.781Z,58.99
2022-08-07T02:03:11.975Z,59.04
2022-08-07T02:04:27.907Z,58.87
2022-08-07T02:06:00.072Z,59.00
2022-08-07T02:07:04.881Z,58.61
2022-08-07T02:08:13.996Z,58.45
2022-08-07T02:09:52.461Z,58.90
2022-08-07T02:10:43.835Z,58.92
2022-08-07T02:12:04.279Z,58.88
2022-08-07T02:13:07.888Z,58.75
2022-08-07T02:14:14.563Z,58.98
2022-08-07T02:15:35.070Z,59.12
2022-08-07T02:16:39.756Z,59.07
2022-08-07T02:17:49.733Z,59.13
2022-08-07T02:18:54.987Z,58.97
2022-08-07T02:20:07.817Z,59.10
2022-08-07T02:21:20.438Z,59.20
2022-08-07T02:22:25.908Z,59.22
2022-08-07T02:23:29.407Z,59.37
2022-08-07T02:24:37.487Z,58.92
2022-08-07T02:26:26.623Z,59.10
2022-08-07T02:27:03.297Z,58.95
2022-08-07T02:28:07.053Z,58.87
2022-08-07T02:29:14.012Z,59.07
2022-08-07T02:30:16.141Z,58.79
2022-08-07T02:31:28.653Z,58.64
2022-08-07T02:32:33.443Z,58.54
2022-08-07T02:33:57.143Z,59.00
2022-08-07T02:35:01.134Z,58.83
2022-08-07T02:36:30.728Z,59.10
2022-08-07T02:37:30.674Z,58.78
2022-08-07T02:38:39.726Z,59.21
2022-08-07T02:40:02.216Z,58.61
2022-08-07T02:41:21.708Z,59.00
2022-08-07T02:42:24.146Z,59.31
2022-08-07T02:43:28.167Z,59.07
2022-08-07T02:44:34.635Z,58.95
2022-08-07T02:45:58.310Z,59.16
2022-08-07T02:47:05.141Z,58.98
2022-08-07T02:48:10.247Z,58.91
2022-08-07T02:49:28.611Z,58.79
2022-08-07T02:50:43.212Z,59.08
2022-08-07T02:51:52.081Z,58.88
2022-08-07T02:53:06.341Z,58.58
2022-08-07T02:54:10.478Z,58.58
2022-08-07T02:55:28.653Z,58.47
2022-08-07T02:56:46.677Z,58.95
2022-08-07T02:57:50.109Z,58.58
2022-08-07T02:58:55.359Z,58.56
2022-08-07T03:00:01.167Z,58.29
2022-08-07T03:01:16.053Z,58.39
2022-08-07T03:02:21.496Z,58.41
2022-08-07T03:03:29.577Z,58.38
2022-08-07T03:04:50.103Z,58.26
2022-08-07T03:05:54.650Z,57.86
2022-08-07T03:06:58.812Z,57.99
2022-08-07T03:08:10.259Z,58.09
2022-08-07T03:09:13.927Z,58.04
2022-08-07T03:10:18.050Z,57.64
2022-08-07T03:11:28.253Z,58.00
2022-08-07T03:12:31.210Z,58.11
2022-08-07T03:13:38.797Z,57.92
2022-08-07T03:14:42.752Z,57.77
2022-08-07T03:15:56.395Z,57.46
2022-08-07T03:17:00.568Z,57.80
2022-08-07T03:18:06.243Z,57.96
2022-08-07T03:19:09.271Z,57.94
2022-08-07T03:20:11.685Z,57.52
2022-08-07T03:21:18.877Z,57.46
2022-08-07T03:22:22.557Z,57.32
2022-08-07T03:23:34.128Z,57.27
2022-08-07T03:24:49.899Z,57.62
2022-08-07T03:25:58.136Z,57.43
2022-08-07T03:27:04.386Z,57.26
2022-08-07T03:28:38.197Z,57.32
2022-08-07T03:29:39.340Z,57.30
2022-08-07T03:30:49.027Z,57.35
2022-08-07T03:31:52.391Z,57.15
2022-08-07T03:32:58.402Z,57.20
2022-08-07T03:34:02.468Z,56.99
2022-08-07T03:35:16.643Z,56.77
2022-08-07T03:36:20.378Z,56.73
2022-08-07T03:37:32.738Z,56.63
2022-08-07T03:38:40.408Z,56.69
2022-08-07T03:39:59.159Z,56.57
2022-08-07T03:41:03.353Z,56.18
2022-08-07T03:42:07.105Z,55.96
2022-08-07T03:43:14.781Z,56.14
2022-08-07T03:44:17.125Z,56.05
2022-08-07T03:45:33.705Z,56.18
2022-08-07T03:47:13.539Z,56.59
2022-08-07T03:48:10.066Z,56.93
2022-08-07T03:49:13.635Z,57.26
2022-08-07T03:50:22.980Z,57.02
2022-08-07T03:51:30.934Z,57.15
2022-08-07T03:52:51.356Z,56.83
2022-08-07T03:54:33.133Z,56.76
2022-08-07T03:55:15.147Z,56.96
2022-08-07T03:56:33.166Z,56.37
2022-08-07T03:58:33.205Z,56.31
2022-08-07T03:59:12.661Z,56.62
2022-08-07T04:00:15.604Z,56.34
2022-08-07T04:01:19.778Z,56.41
2022-08-07T04:02:24.775Z,56.13
2022-08-07T04:03:26.816Z,56.25
2022-08-07T04:04:28.678Z,56.40
2022-08-07T04:05:39.493Z,55.74
2022-08-07T04:06:44.342Z,56.02
2022-08-07T04:07:47.309Z,55.94
2022-08-07T04:08:51.611Z,56.05
2022-08-07T04:09:55.228Z,56.22
2022-08-07T04:12:25.746Z,55.90
2022-08-07T04:12:26.214Z,56.58
2022-08-07T04:13:30.359Z,57.56
2022-08-07T04:14:53.126Z,56.77
2022-08-07T04:15:55.168Z,56.37
2022-08-07T04:16:58.269Z,56.28
2022-08-07T04:18:31.385Z,56.33
2022-08-07T04:19:51.054Z,56.09
2022-08-07T04:20:54.851Z,56.27
2022-08-07T04:22:05.364Z,55.68
2022-08-07T04:23:10.560Z,55.45
2022-08-07T04:24:30.535Z,56.00
2022-08-07T04:25:39.330Z,55.08
2022-08-07T04:26:43.694Z,56.20
2022-08-07T04:27:59.447Z,55.61
2022-08-07T04:29:03.008Z,57.12
2022-08-07T04:30:11.930Z,57.50
2022-08-07T04:31:38.762Z,59.26
2022-08-07T04:32:48.330Z,58.72
2022-08-07T04:34:00.639Z,59.76
2022-08-07T04:35:05.652Z,58.54
2022-08-07T04:36:09.137Z,58.49
2022-08-07T04:37:15.241Z,58.98
2022-08-07T04:38:23.061Z,58.88
2022-08-07T04:39:26.256Z,58.26
2022-08-07T04:40:30.060Z,57.99
2022-08-07T04:41:36.902Z,58.81
2022-08-07T04:42:38.799Z,58.76
2022-08-07T04:44:09.982Z,60.22
2022-08-07T04:45:11.585Z,59.66
2022-08-07T04:46:29.303Z,60.67
2022-08-07T04:47:57.349Z,60.17
2022-08-07T04:49:38.643Z,59.25
2022-08-07T04:51:03.330Z,59.12
2022-08-07T04:52:26.537Z,59.12
2022-08-07T04:54:05.407Z,59.21
2022-08-07T04:58:12.541Z,60.40
2022-08-07T04:58:15.261Z,59.84
2022-08-07T04:58:27.163Z,59.53
2022-08-07T05:00:11.169Z,60.38
2022-08-07T05:01:43.150Z,59.43
2022-08-07T05:03:17.241Z,59.44
2022-08-07T05:04:50.110Z,59.72
2022-08-07T05:06:19.551Z,59.15
2022-08-07T05:07:48.083Z,60.48
2022-08-07T05:09:10.988Z,58.88
2022-08-07T05:10:19.745Z,58.90
2022-08-07T05:11:57.364Z,59.71
2022-08-07T05:13:09.847Z,59.60
2022-08-07T05:14:55.370Z,59.11
2022-08-07T05:16:04.691Z,58.00
2022-08-07T05:17:11.815Z,58.42
2022-08-07T05:18:22.640Z,57.67
2022-08-07T05:19:32.812Z,58.43
2022-08-07T05:20:53.907Z,58.22
2022-08-07T05:22:01.970Z,57.63
2022-08-07T05:23:31.128Z,57.29
2022-08-07T05:24:40.653Z,58.12
2022-08-07T05:26:13.519Z,58.89
2022-08-07T05:27:18.430Z,58.62
2022-08-07T05:28:34.084Z,58.60
2022-08-07T05:29:51.046Z,58.48
2022-08-07T05:30:57.308Z,58.73
2022-08-07T05:32:01.106Z,58.48
2022-08-07T05:33:06.042Z,60.37
2022-08-07T05:34:13.423Z,58.95
2022-08-07T05:35:33.038Z,56.37
2022-08-07T05:36:39.099Z,56.07
2022-08-07T05:37:42.498Z,56.39
2022-08-07T05:39:00.302Z,57.10
2022-08-07T05:40:18.016Z,55.35
2022-08-07T05:41:21.880Z,56.23
2022-08-07T05:42:33.761Z,58.83
2022-08-07T05:44:01.347Z,55.56
2022-08-07T05:45:14.739Z,58.14
2022-08-07T05:46:26.458Z,56.47
2022-08-07T05:47:37.860Z,55.13
2022-08-07T05:48:59.321Z,54.78
2022-08-07T05:50:02.499Z,54.05
2022-08-07T05:51:04.514Z,53.29
2022-08-07T05:52:06.510Z,53.18
2022-08-07T05:54:09.345Z,53.03
2022-08-07T05:54:44.459Z,51.65
2022-08-07T05:56:03.366Z,52.06
2022-08-07T05:57:09.337Z,50.59
2022-08-07T05:58:12.421Z,50.41
2022-08-07T05:59:17.653Z,49.62
2022-08-07T06:00:20.195Z,50.09
2022-08-07T06:01:23.722Z,50.28
2022-08-07T06:02:30.689Z,49.89
2022-08-07T06:03:53.599Z,48.93
2022-08-07T06:04:59.713Z,49.13
2022-08-07T06:06:01.818Z,48.29
2022-08-07T06:07:06.131Z,47.29
2022-08-07T06:08:29.788Z,49.31
2022-08-07T06:10:04.260Z,47.97
2022-08-07T06:10:54.686Z,47.19
2022-08-07T06:11:58.543Z,47.01
2022-08-07T06:13:02.273Z,46.51
2022-08-07T06:14:11.645Z,45.17
2022-08-07T06:15:16.450Z,41.81
2022-08-07T06:16:23.731Z,41.05
2022-08-07T06:17:38.138Z,40.92
2022-08-07T06:18:51.866Z,41.98
2022-08-07T06:20:04.316Z,42.10
2022-08-07T06:22:16.687Z,43.12
2022-08-07T06:22:38.731Z,42.43
2022-08-07T06:24:38.526Z,41.63
2022-08-07T06:25:06.030Z,39.05
2022-08-07T06:26:13.620Z,39.76
2022-08-07T06:27:44.305Z,39.32
2022-08-07T06:28:53.612Z,39.39
2022-08-07T06:29:55.393Z,36.98
2022-08-07T06:30:58.563Z,37.62
2022-08-07T06:32:01.598Z,35.89
2022-08-07T06:33:04.671Z,36.46
2022-08-07T06:34:06.459Z,35.69
2022-08-07T06:35:17.621Z,35.12
2022-08-07T06:36:35.003Z,34.74
2022-08-07T06:37:43.482Z,34.19
2022-08-07T06:38:58.652Z,32.43
2022-08-07T06:40:16.464Z,33.49
2022-08-07T06:42:09.069Z,33.36
2022-08-07T06:43:21.379Z,34.18
2022-08-07T06:44:26.465Z,32.45
2022-08-07T06:45:36.373Z,30.90
2022-08-07T06:46:40.318Z,31.66
2022-08-07T06:47:57.447Z,31.22
2022-08-07T06:49:04.317Z,30.33
2022-08-07T06:50:08.235Z,30.43
2022-08-07T06:51:30.943Z,29.44
2022-08-07T06:52:42.215Z,29.77
2022-08-07T06:55:28.141Z,29.74
2022-08-07T06:55:34.197Z,28.19
2022-08-07T06:56:48.668Z,28.74
2022-08-07T06:57:57.169Z,28.10
2022-08-07T07:00:17.809Z,26.41
2022-08-07T07:00:22.925Z,26.47
2022-08-07T07:01:25.905Z,25.90
2022-08-07T07:02:53.460Z,26.63
2022-08-07T07:04:08.309Z,26.75
2022-08-07T07:06:02.440Z,24.89
2022-08-07T07:07:00.588Z,25.18
2022-08-07T07:08:07.388Z,25.96
2022-08-07T07:09:25.674Z,25.62
2022-08-07T07:10:34.845Z,26.06
2022-08-07T07:12:09.169Z,25.66
2022-08-07T07:13:08.277Z,26.08
2022-08-07T07:14:14.026Z,25.89
2022-08-07T07:15:32.364Z,26.80
2022-08-07T07:16:45.140Z,27.12
2022-08-07T07:17:55.308Z,28.52
2022-08-07T07:19:33.873Z,28.23
2022-08-07T07:20:51.417Z,28.20
2022-08-07T07:22:04.812Z,28.17
2022-08-07T07:24:11.126Z,26.38
2022-08-07T07:24:38.543Z,26.65
2022-08-07T07:26:32.807Z,26.97
2022-08-07T07:27:11.631Z,25.95
2022-08-07T07:28:42.726Z,25.32
2022-08-07T07:30:07.565Z,26.58
2022-08-07T07:31:44.586Z,27.67
2022-08-07T07:32:48.641Z,26.13
2022-08-07T07:33:57.375Z,27.07
2022-08-07T07:35:04.022Z,26.58
2022-08-07T07:36:12.877Z,26.17
2022-08-07T07:37:44.300Z,28.62
2022-08-07T07:38:40.111Z,25.65
2022-08-07T07:39:51.924Z,27.68
2022-08-07T07:41:01.808Z,26.50
2022-08-07T07:42:13.089Z,25.62
2022-08-07T07:43:18.695Z,26.12
2022-08-07T07:44:31.710Z,26.01
2022-08-07T07:46:37.545Z,26.22
2022-08-07T07:47:11.927Z,25.43
2022-08-07T07:48:34.724Z,26.03
2022-08-07T07:50:35.484Z,27.46
2022-08-07T07:51:03.366Z,27.64
2022-08-07T07:52:13.107Z,27.89
2022-08-07T07:53:23.242Z,27.59
2022-08-07T07:54:28.559Z,28.13
2022-08-07T07:55:37.681Z,27.77
2022-08-07T07:56:49.101Z,24.68
2022-08-07T07:57:54.091Z,25.94
2022-08-07T07:59:01.975Z,25.85
2022-08-07T08:00:05.366Z,25.50
2022-08-07T08:02:02.086Z,25.86
2022-08-07T08:02:36.104Z,27.09
2022-08-07T08:04:09.572Z,23.50
2022-08-07T08:05:05.446Z,24.81
2022-08-07T08:06:17.976Z,25.46
2022-08-07T08:07:20.051Z,24.63
2022-08-07T08:08:34.328Z,28.94
2022-08-07T08:09:52.319Z,26.05
2022-08-07T08:11:03.032Z,25.67
2022-08-07T08:12:09.582Z,26.31
2022-08-07T08:13:15.610Z,27.81
2022-08-07T08:14:21.427Z,27.70
2022-08-07T08:15:57.951Z,26.27
2022-08-07T08:16:55.725Z,25.12
2022-08-07T08:18:18.676Z,27.15
2022-08-07T08:20:17.302Z,26.39
2022-08-07T08:20:48.778Z,25.03
2022-08-07T08:22:10.834Z,26.45
2022-08-07T08:23:32.888Z,24.64
2022-08-07T08:25:15.903Z,26.99
2022-08-07T08:26:40.546Z,25.50
2022-08-07T08:27:56.029Z,26.34
2022-08-07T08:29:01.333Z,25.82
2022-08-07T08:30:14.326Z,25.36
2022-08-07T08:31:58.374Z,26.32
2022-08-07T08:32:54.103Z,25.00
2022-08-07T08:33:58.044Z,24.96
2022-08-07T08:35:00.460Z,26.62
2022-08-07T08:36:04.113Z,27.41
2022-08-07T08:37:09.760Z,26.27
2022-08-07T08:38:13.566Z,25.12
2022-08-07T08:39:15.589Z,24.36
2022-08-07T08:40:30.882Z,25.22
2022-08-07T08:42:00.053Z,23.11
2022-08-07T08:43:10.717Z,24.26
2022-08-07T08:44:29.374Z,23.26
2022-08-07T08:45:59.519Z,24.37
2022-08-07T08:47:10.087Z,23.54
2022-08-07T08:48:36.398Z,22.51
2022-08-07T08:50:06.048Z,21.39
2022-08-07T08:51:26.301Z,22.74
2022-08-07T08:52:53.735Z,21.06
2022-08-07T08:54:12.826Z,22.63
2022-08-07T08:55:55.555Z,22.04
2022-08-07T08:57:07.313Z,21.12
2022-08-07T08:58:20.211Z,21.19
2022-08-07T08:59:42.313Z,20.65
2022-08-07T09:00:54.950Z,22.97
2022-08-07T09:02:40.497Z,22.16
2022-08-07T09:04:08.016Z,20.49
2022-08-07T09:05:32.006Z,19.68
2022-08-07T09:07:02.415Z,20.09
2022-08-07T09:08:24.368Z,20.49
2022-08-07T09:10:04.611Z,20.78
2022-08-07T09:11:43.533Z,22.58
2022-08-07T09:13:06.989Z,22.14
2022-08-07T09:14:14.395Z,20.63
2022-08-07T09:16:24.534Z,20.16
2022-08-07T09:17:07.921Z,19.96
2022-08-07T09:18:41.583Z,20.14
2022-08-07T09:20:35.653Z,20.59
2022-08-07T09:22:22.591Z,20.43
2022-08-07T09:24:33.686Z,20.50
2022-08-07T09:25:11.964Z,20.15
2022-08-07T09:26:28.192Z,20.74
2022-08-07T09:27:31.294Z,20.81
2022-08-07T09:30:01.924Z,22.17
2022-08-07T09:30:09.476Z,22.65
2022-08-07T09:31:11.191Z,22.22
2022-08-07T09:32:35.637Z,22.08
2022-08-07T09:33:56.660Z,22.08
2022-08-07T09:36:04.048Z,22.45
2022-08-07T09:37:12.576Z,23.45
2022-08-07T09:38:19.925Z,23.79
2022-08-07T09:39:53.610Z,23.09
2022-08-07T09:41:16.912Z,22.46
2022-08-07T09:42:25.266Z,22.87
2022-08-07T09:44:06.370Z,22.60
2022-08-07T09:47:25.943Z,23.37
2022-08-07T09:47:52.544Z,23.57
2022-08-07T09:48:28.742Z,25.46
2022-08-07T09:50:00.886Z,21.92
2022-08-07T09:52:16.539Z,23.42
2022-08-07T09:53:02.253Z,21.36
2022-08-07T09:54:08.362Z,22.69
2022-08-07T09:56:03.933Z,22.14
2022-08-07T09:57:19.962Z,23.51
2022-08-07T09:58:48.585Z,22.40
2022-08-07T10:00:03.821Z,23.51
2022-08-07T10:01:51.375Z,22.33
2022-08-07T10:04:03.336Z,23.16
2022-08-07T10:05:12.494Z,23.30
2022-08-07T10:06:31.782Z,22.69
2022-08-07T10:08:13.073Z,22.58
2022-08-07T10:09:59.175Z,23.01
2022-08-07T10:12:02.012Z,22.41
2022-08-07T10:13:55.003Z,22.60
2022-08-07T10:14:56.569Z,23.04
2022-08-07T10:16:13.145Z,23.32
2022-08-07T10:18:01.293Z,23.76
2022-08-07T10:19:42.125Z,24.08
2022-08-07T10:21:05.361Z,24.93
2022-08-07T10:22:36.788Z,24.52
2022-08-07T10:24:21.312Z,23.44
2022-08-07T10:25:51.940Z,24.02
2022-08-07T10:27:10.402Z,23.50
2022-08-07T10:28:13.150Z,24.00
2022-08-07T10:29:39.376Z,24.16
2022-08-07T10:31:11.331Z,25.47
2022-08-07T10:32:51.074Z,24.97
2022-08-07T10:34:40.402Z,25.21
2022-08-07T10:36:17.978Z,25.18
2022-08-07T10:38:35.068Z,23.69
2022-08-07T10:39:42.050Z,24.14
2022-08-07T10:41:12.136Z,24.31
2022-08-07T10:42:31.203Z,26.18
2022-08-07T10:44:02.301Z,25.33
2022-08-07T10:45:12.039Z,26.52
2022-08-07T10:46:24.308Z,25.33
2022-08-07T10:47:52.912Z,25.48
2022-08-07T10:49:14.934Z,24.32
2022-08-07T10:50:25.913Z,26.79
2022-08-07T10:51:39.619Z,25.33
2022-08-07T10:53:05.383Z,25.88
2022-08-07T10:54:38.271Z,25.75
2022-08-07T10:55:50.631Z,26.19
2022-08-07T10:57:13.887Z,26.08
2022-08-07T10:58:59.553Z,25.46
2022-08-07T11:00:09.702Z,25.59
2022-08-07T11:02:27.400Z,26.10
2022-08-07T11:03:52.751Z,25.43
2022-08-07T11:05:24.788Z,25.13
2022-08-07T11:07:15.039Z,26.11
2022-08-07T11:10:07.567Z,27.03
2022-08-07T11:11:08.170Z,25.59
2022-08-07T11:12:43.297Z,26.33
2022-08-07T11:14:45.608Z,26.69
2022-08-07T11:15:31.476Z,27.11
2022-08-07T11:16:49.415Z,22.79
2022-08-07T11:18:04.716Z,24.77
2022-08-07T11:19:27.468Z,22.32
2022-08-07T11:20:56.710Z,21.34
2022-08-07T11:22:33.309Z,23.48
2022-08-07T11:23:48.452Z,21.61
2022-08-07T11:25:00.440Z,21.62
2022-08-07T11:26:17.655Z,21.12
2022-08-07T11:28:01.276Z,22.80
2022-08-07T11:29:41.219Z,22.40
2022-08-07T11:30:59.438Z,22.84
2022-08-07T11:32:29.430Z,23.29
2022-08-07T11:34:20.586Z,23.28
2022-08-07T11:35:30.311Z,24.76
2022-08-07T11:36:54.291Z,24.06
2022-08-07T11:38:21.439Z,23.05
2022-08-07T11:40:00.450Z,23.07
2022-08-07T11:41:18.013Z,23.20
2022-08-07T11:42:54.364Z,23.83
2022-08-07T11:44:12.789Z,24.58
2022-08-07T11:45:35.507Z,24.19
2022-08-07T11:46:50.227Z,23.40
2022-08-07T11:48:18.309Z,24.17
2022-08-07T11:50:30.772Z,23.33
2022-08-07T11:51:44.621Z,23.06
2022-08-07T11:53:01.851Z,21.75
2022-08-07T11:54:54.991Z,23.22
2022-08-07T11:56:30.784Z,22.25
2022-08-07T11:58:16.232Z,24.11
2022-08-07T12:00:11.140Z,23.02
2022-08-07T12:01:05.233Z,22.94
2022-08-07T12:02:17.673Z,22.66
2022-08-07T12:04:05.572Z,24.36
2022-08-07T12:05:49.001Z,24.44
2022-08-07T12:07:20.159Z,24.49
2022-08-07T12:08:45.595Z,25.20
2022-08-07T12:09:57.258Z,24.55
2022-08-07T12:11:21.516Z,25.09
2022-08-07T12:12:35.679Z,24.77
2022-08-07T12:14:01.447Z,24.95
2022-08-07T12:15:16.989Z,25.95
2022-08-07T12:16:42.631Z,26.37
2022-08-07T12:17:58.594Z,24.95
2022-08-07T12:19:22.074Z,26.49
2022-08-07T12:20:49.362Z,26.66
2022-08-07T12:22:38.742Z,25.23
2022-08-07T12:24:07.298Z,26.05
2022-08-07T12:26:05.685Z,25.50
2022-08-07T12:27:18.725Z,25.92
2022-08-07T12:28:57.594Z,25.56
2022-08-07T12:30:07.453Z,26.57
2022-08-07T12:31:17.326Z,25.19
2022-08-07T12:32:38.241Z,25.95
2022-08-07T12:34:00.662Z,25.53
2022-08-07T12:35:05.576Z,25.45
2022-08-07T12:36:11.436Z,23.89
2022-08-07T12:37:16.936Z,24.88
2022-08-07T12:38:39.136Z,24.45
2022-08-07T12:39:51.278Z,25.92
2022-08-07T12:40:55.435Z,25.15
2022-08-07T12:42:01.230Z,23.33
2022-08-07T12:43:09.266Z,22.53
2022-08-07T12:44:17.368Z,22.93
2022-08-07T12:45:30.563Z,22.77
2022-08-07T12:47:06.260Z,22.96
2022-08-07T12:48:52.093Z,24.04
2022-08-07T12:50:34.081Z,24.22
2022-08-07T12:52:14.377Z,24.25
2022-08-07T12:53:22.421Z,24.30
2022-08-07T12:54:38.933Z,25.17
2022-08-07T12:56:03.975Z,25.85
2022-08-07T12:57:09.594Z,26.17
2022-08-07T12:58:15.979Z,26.01
2022-08-07T12:59:21.780Z,26.71
2022-08-07T13:00:35.907Z,26.52
2022-08-07T13:01:55.790Z,26.10
2022-08-07T13:03:54.802Z,26.42
2022-08-07T13:05:01.770Z,26.33
2022-08-07T13:06:27.014Z,26.01
2022-08-07T13:08:13.699Z,26.40
2022-08-07T13:10:20.454Z,27.89
2022-08-07T13:12:02.658Z,28.39
2022-08-07T13:13:46.971Z,27.65
2022-08-07T13:15:09.573Z,26.81
2022-08-07T13:16:36.610Z,26.69
2022-08-07T13:17:42.704Z,26.53
2022-08-07T13:18:59.560Z,26.74
2022-08-07T13:20:09.871Z,27.64
2022-08-07T13:21:37.388Z,27.19
2022-08-07T13:23:09.719Z,26.91
2022-08-07T13:24:29.464Z,26.42
2022-08-07T13:26:04.269Z,27.11
2022-08-07T13:27:13.456Z,27.66
2022-08-07T13:28:34.021Z,27.33
2022-08-07T13:29:52.972Z,28.08
2022-08-07T13:31:06.391Z,27.26
2022-08-07T13:32:38.795Z,27.90
2022-08-07T13:34:32.034Z,27.61
2022-08-07T13:35:24.497Z,28.02
2022-08-07T13:37:30.622Z,28.05
2022-08-07T13:39:01.806Z,28.64
2022-08-07T13:40:35.914Z,29.22
2022-08-07T13:41:42.511Z,29.27
2022-08-07T13:42:51.484Z,29.16
2022-08-07T13:43:56.531Z,29.25
2022-08-07T13:46:07.130Z,29.35
2022-08-07T13:46:28.266Z,29.59
2022-08-07T13:48:06.842Z,30.07
2022-08-07T13:49:02.087Z,30.54
2022-08-07T13:50:34.310Z,30.09
2022-08-07T13:52:04.681Z,30.39
2022-08-07T13:52:55.384Z,30.15
2022-08-07T13:54:03.371Z,30.06
2022-08-07T13:55:34.136Z,31.01
2022-08-07T13:56:51.675Z,30.72
2022-08-07T13:58:28.050Z,30.64
2022-08-07T13:59:33.884Z,33.46
2022-08-07T14:00:39.476Z,33.64
2022-08-07T14:02:07.790Z,34.03
2022-08-07T14:03:09.818Z,35.43
2022-08-07T14:04:17.161Z,35.77
2022-08-07T14:05:25.126Z,36.31
2022-08-07T14:06:42.080Z,36.87
2022-08-07T14:07:59.340Z,37.31
2022-08-07T14:09:04.781Z,37.91
2022-08-07T14:10:16.328Z,38.79
2022-08-07T14:11:22.182Z,39.16
2022-08-07T14:12:36.224Z,39.72
2022-08-07T14:13:53.418Z,39.58
2022-08-07T14:15:08.976Z,40.12
2022-08-07T14:16:16.115Z,40.49
2022-08-07T14:18:12.845Z,40.87
2022-08-07T14:18:49.855Z,39.56
2022-08-07T14:20:40.571Z,39.09
2022-08-07T14:22:04.266Z,38.55
2022-08-07T14:23:59.053Z,37.70
2022-08-07T14:24:45.670Z,37.89
2022-08-07T14:25:54.844Z,38.15
2022-08-07T14:27:00.373Z,37.29
2022-08-07T14:28:10.588Z,37.12
2022-08-07T14:30:02.983Z,37.52
2022-08-07T14:30:47.350Z,37.51
2022-08-07T14:31:56.379Z,37.92
2022-08-07T14:33:04.735Z,37.80
2022-08-07T14:34:07.879Z,38.70
2022-08-07T14:35:44.709Z,38.74
2022-08-07T14:36:41.636Z,38.50
2022-08-07T14:38:05.608Z,38.45
2022-08-07T14:39:12.518Z,39.26
2022-08-07T14:40:35.317Z,40.07
2022-08-07T14:42:20.664Z,40.48
2022-08-07T14:43:58.779Z,40.77
2022-08-07T14:44:33.009Z,41.35
2022-08-07T14:45:46.444Z,41.56
2022-08-07T14:46:58.678Z,40.78
2022-08-07T14:49:56.789Z,40.55
2022-08-07T14:51:05.046Z,41.17
2022-08-07T14:52:10.559Z,40.15
2022-08-07T14:53:13.927Z,40.45
2022-08-07T14:54:34.415Z,38.61
2022-08-07T14:55:55.834Z,38.28
2022-08-07T14:57:02.836Z,38.54
2022-08-07T14:58:06.159Z,38.09
2022-08-07T15:00:36.254Z,37.95
2022-08-07T15:01:51.092Z,38.24
2022-08-07T15:04:18.202Z,37.78
2022-08-07T15:05:23.664Z,38.20
2022-08-07T15:06:29.870Z,37.90
2022-08-07T15:09:59.592Z,38.14
2022-08-07T15:10:29.880Z,37.71
2022-08-07T15:11:53.594Z,36.98
2022-08-07T15:13:25.315Z,36.67
2022-08-07T15:14:30.418Z,36.74
2022-08-07T15:15:38.977Z,36.39
2022-08-07T15:16:54.589Z,36.81
2022-08-07T15:18:02.593Z,36.59
2022-08-07T15:19:14.184Z,37.47
2022-08-07T15:20:32.951Z,37.44
2022-08-07T15:21:58.559Z,37.57
2022-08-07T15:23:20.486Z,38.03
2022-08-07T15:25:14.182Z,37.95
2022-08-07T15:25:55.860Z,38.07
2022-08-07T15:27:10.390Z,38.36
2022-08-07T15:32:51.049Z,38.39
2022-08-07T15:34:05.617Z,38.58
2022-08-07T15:36:01.407Z,38.82
2022-08-07T15:37:02.897Z,38.75
2022-08-07T15:38:30.132Z,39.08
2022-08-07T15:39:28.137Z,39.40
2022-08-07T15:44:05.027Z,39.24
2022-08-07T15:46:51.642Z,39.64
2022-08-07T15:48:23.483Z,38.92
2022-08-07T15:50:04.495Z,39.00
2022-08-07T15:52:30.306Z,39.66
2022-08-07T15:53:53.090Z,38.68
2022-08-07T15:54:57.090Z,38.59
2022-08-07T15:56:13.290Z,38.89
2022-08-07T15:57:39.615Z,38.95
2022-08-07T15:58:53.009Z,38.54
2022-08-07T15:59:56.779Z,38.49
2022-08-07T16:01:05.574Z,38.10
2022-08-07T16:02:08.742Z,38.63
2022-08-07T16:03:21.331Z,39.02
2022-08-07T16:04:31.585Z,38.66
2022-08-07T16:05:34.949Z,38.99
2022-08-07T16:06:43.719Z,39.10
2022-08-07T16:08:30.310Z,39.43
2022-08-07T16:09:23.169Z,38.70
2022-08-07T16:10:29.463Z,38.52
2022-08-07T16:11:46.186Z,38.56
2022-08-07T16:13:39.403Z,38.77
2022-08-07T16:14:43.259Z,38.56
2022-08-07T16:16:48.023Z,38.37
2022-08-07T16:18:01.816Z,38.30
2022-08-07T16:19:41.892Z,38.86
2022-08-07T16:20:55.140Z,39.33
2022-08-07T16:22:54.865Z,38.53
2022-08-07T16:24:03.163Z,39.35
2022-08-07T16:25:53.082Z,38.52
2022-08-07T16:27:19.199Z,38.78
2022-08-07T16:30:07.195Z,39.34
2022-08-07T16:30:30.479Z,39.19
2022-08-07T16:31:51.312Z,38.28
2022-08-07T16:34:03.053Z,38.79
2022-08-07T16:34:56.781Z,38.93
2022-08-07T16:36:20.709Z,39.14
2022-08-07T16:38:04.079Z,39.04
2022-08-07T16:39:33.748Z,38.90
2022-08-07T16:41:12.930Z,38.77
2022-08-07T16:42:45.805Z,38.89
2022-08-07T16:44:06.332Z,38.86